Time;durP1;ratioP1;P1;durP2;ratioP2;P2;SDS_P1;SDS_P2;PMS_P1;PMS_P2;Temp;Humidity;BMP_temperature;BMP_pressure;BME280_temperature;BME280_humidity;BME280_pressure;Samples;Min_cycle;Max_cycle;Signal;HPM_P1;HPM_P2
2024/03/27 00:00:23;;;;;;;;;;;;;;;19.92;46.71;98662.69;2061904;28;6659;-63
2024/03/27 00:01:23;;;;;;;;;;;;;;;19.92;46.94;98668.44;2067494;28;1655;-63
2024/03/27 00:02:24;;;;;;;;;;;;;;;19.92;46.92;98664.84;2059221;28;1885;-63
2024/03/27 00:03:24;;;;;;;;;;;;;;;19.92;46.88;98667.72;2052384;28;1701;-63
2024/03/27 00:04:25;;;;;;;;;;;;;;;19.92;46.80;98661.97;2066737;28;1680;-63
2024/03/27 00:05:25;;;;;;;;;;;;;;;19.91;46.74;98667.00;2067727;28;1735;-63
2024/03/27 00:06:25;;;;;;;;;;;;;;;19.91;46.81;98667.00;2053081;28;1716;-63
2024/03/27 00:07:26;;;;;;;;;;;;;;;19.92;46.72;98659.81;2052288;28;1659;-63
2024/03/27 00:08:26;;;;;;;;;;;;;;;19.90;46.81;98659.78;2067600;28;1779;-63
2024/03/27 00:09:27;;;;;;;;;;;;;;;19.90;46.63;98665.53;2068785;28;1675;-63
2024/03/27 00:10:27;;;;;;;;;;;;;;;19.91;46.86;98661.25;2059446;28;1672;-63
2024/03/27 00:11:28;;;;;;;;;;;;;;;19.90;46.78;98665.53;2052837;28;1957;-63
2024/03/27 00:12:28;;;;;;;;;;;;;;;19.90;46.66;98659.06;2052236;28;1667;-63
2024/03/27 00:13:28;;;;;;;;;;;;;;;19.91;46.73;98669.88;2059684;28;1687;-63
2024/03/27 00:14:29;;;;;;;;;;;;;;;19.89;46.79;98669.84;2059008;28;1972;-63
2024/03/27 00:15:29;;;;;;;;;;;;;;;19.89;46.72;98661.22;2052597;28;1648;-63
2024/03/27 00:16:30;;;;;;;;;;;;;;;19.90;46.77;98664.81;2060608;28;1666;-63
2024/03/27 00:17:30;;;;;;;;;;;;;;;19.89;46.67;98658.38;2061525;28;1605;-63
2024/03/27 00:18:31;;;;;;;;;;;;;;;19.89;46.69;98664.09;2057601;28;2052;-63
2024/03/27 00:19:31;;;;;;;;;;;;;;;19.88;46.73;98649.03;2059513;28;1653;-63
2024/03/27 00:20:31;;;;;;;;;;;;;;;19.89;46.63;98664.09;2059350;28;2107;-63
2024/03/27 00:21:32;;;;;;;;;;;;;;;19.89;46.76;98664.09;2059022;28;1696;-63
2024/03/27 00:22:32;;;;;;;;;;;;;;;19.89;46.75;98658.38;2053791;28;1652;-63
2024/03/27 00:23:33;;;;;;;;;;;;;;;19.87;46.77;98661.91;2056966;28;1872;-63
2024/03/27 00:24:34;;;;;;;;;;;;;;;19.89;46.61;98666.97;2057046;28;1681;-63
2024/03/27 00:25:34;;;;;;;;;;;;;;;19.87;46.73;98661.19;2060098;28;1630;-63
2024/03/27 00:26:34;;;;;;;;;;;;;;;19.87;46.92;98661.19;2052553;28;1671;-63
2024/03/27 00:27:35;;;;;;;;;;;;;;;19.87;46.67;98664.78;2053675;28;1754;-63
2024/03/27 00:28:35;;;;;;;;;;;;;;;19.87;46.73;98649.72;2067261;28;1702;-63
2024/03/27 00:29:36;;;;;;;;;;;;;;;19.86;46.68;98646.13;2068464;28;1659;-63
2024/03/27 00:30:36;;;;;;;;;;;;;;;19.85;46.70;98649.69;2051168;28;6466;-63
2024/03/27 00:31:36;;;;;;;;;;;;;;;19.86;46.75;98654.03;2067712;28;1633;-63
2024/03/27 00:32:37;;;;;;;;;;;;;;;19.87;46.59;98655.47;2065072;28;1619;-63
2024/03/27 00:33:37;;;;;;;;;;;;;;;19.85;46.67;98647.53;2051350;28;1642;-63
2024/03/27 00:34:38;;;;;;;;;;;;;;;19.86;46.68;98651.16;2052359;28;1914;-63
2024/03/27 00:35:38;;;;;;;;;;;;;;;19.85;46.65;98652.56;2061382;28;1739;-63
2024/03/27 00:36:38;;;;;;;;;;;;;;;19.85;46.63;98655.44;2059850;28;1784;-63
2024/03/27 00:37:39;;;;;;;;;;;;;;;19.85;46.83;98646.81;2059459;28;1685;-63
2024/03/27 00:38:39;;;;;;;;;;;;;;;19.84;46.69;98651.13;2056917;28;2100;-63
2024/03/27 00:39:40;;;;;;;;;;;;;;;19.84;46.74;98645.38;2059717;28;1701;-63
2024/03/27 00:40:41;;;;;;;;;;;;;;;19.84;46.62;98651.13;2057958;28;2072;-63
2024/03/27 00:41:42;;;;;;;;;;;;;;;19.84;46.72;98656.88;2060133;28;1675;-63
2024/03/27 00:42:42;;;;;;;;;;;;;;;19.83;46.77;98655.41;2052441;28;1628;-63
2024/03/27 00:43:42;;;;;;;;;;;;;;;19.83;46.65;98652.53;2059169;28;1709;-63
2024/03/27 00:44:43;;;;;;;;;;;;;;;19.83;46.64;98652.53;2057062;28;1638;-63
2024/03/27 00:45:43;;;;;;;;;;;;;;;19.83;46.64;98647.50;2053435;28;1737;-63
2024/03/27 00:46:44;;;;;;;;;;;;;;;19.83;46.68;98646.78;2067170;28;1668;-63
2024/03/27 00:47:44;;;;;;;;;;;;;;;19.82;46.64;98639.59;2065959;28;1680;-63
2024/03/27 00:48:44;;;;;;;;;;;;;;;19.81;46.62;98641.00;2052640;28;2009;-63
2024/03/27 00:49:45;;;;;;;;;;;;;;;19.81;46.73;98646.75;2060190;28;1738;-63
2024/03/27 00:50:45;;;;;;;;;;;;;;;19.81;46.65;98641.75;2051651;28;2092;-63
2024/03/27 00:51:46;;;;;;;;;;;;;;;19.82;46.61;98639.59;2052684;28;1718;-63
2024/03/27 00:52:47;;;;;;;;;;;;;;;19.81;46.64;98636.00;2060547;28;1680;-63
2024/03/27 00:53:47;;;;;;;;;;;;;;;19.81;46.68;98632.41;2058287;28;1661;-63
2024/03/27 00:54:48;;;;;;;;;;;;;;;19.81;46.63;98630.28;2051475;28;2109;-63
2024/03/27 00:55:58;;;;;;;;;;;;;;;19.81;46.73;98632.41;2060804;28;1618;-63
2024/03/27 00:56:58;;;;;;;;;;;;;;;19.81;46.57;98638.13;2061740;28;1736;-63
2024/03/27 00:57:58;;;;;;;;;;;;;;;19.80;46.73;98628.09;2059523;28;1705;-63
2024/03/27 00:58:59;;;;;;;;;;;;;;;19.81;46.58;98629.53;2051505;28;1753;-63
2024/03/27 00:59:59;;;;;;;;;;;;;;;19.80;46.56;98634.53;2060052;28;1679;-63
2024/03/27 01:00:59;;;;;;;;;;;;;;;19.79;46.61;98633.13;2059164;28;6098;-63
2024/03/27 01:02:01;;;;;;;;;;;;;;;19.80;46.60;98625.22;2053296;28;1601;-63
2024/03/27 01:03:01;;;;;;;;;;;;;;;19.80;46.69;98628.09;2051908;28;1623;-63
2024/03/27 01:04:01;;;;;;;;;;;;;;;19.80;46.55;98625.94;2053744;28;1627;-63
2024/03/27 01:05:02;;;;;;;;;;;;;;;19.78;46.64;98625.91;2057869;28;2120;-63
2024/03/27 01:06:03;;;;;;;;;;;;;;;19.78;46.65;98623.03;2059608;28;2097;-63
2024/03/27 01:07:03;;;;;;;;;;;;;;;19.78;46.79;98625.91;2052436;28;1780;-63
2024/03/27 01:08:04;;;;;;;;;;;;;;;19.78;46.82;98628.06;2059423;28;1661;-63
2024/03/27 01:09:06;;;;;;;;;;;;;;;19.79;46.50;98626.63;2051032;28;2014;-63
2024/03/27 01:10:08;;;;;;;;;;;;;;;19.79;46.64;98626.63;2059569;28;1825;-64
2024/03/27 01:11:08;;;;;;;;;;;;;;;19.79;46.55;98621.63;2059494;28;2168;-63
2024/03/27 01:12:09;;;;;;;;;;;;;;;19.78;46.60;98620.16;2053139;28;1671;-63
2024/03/27 01:13:09;;;;;;;;;;;;;;;19.77;46.50;98618.72;2053423;28;1747;-63
2024/03/27 01:14:10;;;;;;;;;;;;;;;19.78;46.60;98613.69;2059968;28;2031;-63
2024/03/27 01:15:11;;;;;;;;;;;;;;;19.77;46.60;98612.25;2053723;28;1765;-63
2024/03/27 01:16:11;;;;;;;;;;;;;;;19.77;46.45;98612.25;2060229;28;1650;-63
2024/03/27 01:17:12;;;;;;;;;;;;;;;19.76;46.50;98617.25;2058646;28;1999;-63
2024/03/27 01:18:12;;;;;;;;;;;;;;;19.76;46.59;98611.53;2059505;28;1607;-63
2024/03/27 01:19:12;;;;;;;;;;;;;;;19.76;46.65;98605.06;2052067;28;1583;-63
2024/03/27 01:20:15;;;;;;;;;;;;;;;19.77;46.63;98612.25;2061155;28;1806;-63
2024/03/27 01:21:16;;;;;;;;;;;;;;;19.76;46.55;98607.94;2060674;28;1641;-63
2024/03/27 01:22:17;;;;;;;;;;;;;;;19.76;46.69;98605.06;2060079;28;1642;-63
2024/03/27 01:23:17;;;;;;;;;;;;;;;19.76;46.68;98605.06;2058153;28;1873;-63
2024/03/27 01:24:18;;;;;;;;;;;;;;;19.75;46.54;98600.75;2057612;28;2136;-63
2024/03/27 01:25:18;;;;;;;;;;;;;;;19.75;46.46;98600.75;2059232;28;2199;-63
2024/03/27 01:26:19;;;;;;;;;;;;;;;19.75;46.59;98597.88;2051409;28;1726;-63
2024/03/27 01:27:19;;;;;;;;;;;;;;;19.75;46.51;98598.59;2061076;28;1657;-63
2024/03/27 01:28:20;;;;;;;;;;;;;;;19.75;46.72;98592.84;2060550;28;2025;-63
2024/03/27 01:29:20;;;;;;;;;;;;;;;19.75;46.61;98603.63;2052555;28;1647;-63
2024/03/27 01:30:21;;;;;;;;;;;;;;;19.74;46.52;98594.25;2050899;28;6394;-63
2024/03/27 01:31:21;;;;;;;;;;;;;;;19.74;46.51;98593.53;2060870;28;1649;-63
2024/03/27 01:32:21;;;;;;;;;;;;;;;19.74;46.47;98597.13;2060466;28;1657;-63
2024/03/27 01:33:22;;;;;;;;;;;;;;;19.74;46.51;98596.41;2059201;28;1662;-63
2024/03/27 01:34:22;;;;;;;;;;;;;;;19.73;46.57;98597.84;2057895;28;1932;-63
2024/03/27 01:35:23;;;;;;;;;;;;;;;19.73;46.52;98589.25;2058292;28;1690;-63
2024/03/27 01:36:23;;;;;;;;;;;;;;;19.73;46.63;98589.97;2053760;28;1628;-63
2024/03/27 01:37:24;;;;;;;;;;;;;;;19.72;46.58;98585.63;2054202;28;1607;-63
2024/03/27 01:38:24;;;;;;;;;;;;;;;19.73;46.60;98589.97;2059560;28;2080;-63
2024/03/27 01:39:25;;;;;;;;;;;;;;;19.73;46.50;98594.97;2061868;28;1625;-63
2024/03/27 01:40:25;;;;;;;;;;;;;;;19.72;46.43;98588.50;2060859;28;2041;-63
2024/03/27 01:41:26;;;;;;;;;;;;;;;19.72;46.53;98588.50;2057945;28;1871;-63
2024/03/27 01:42:26;;;;;;;;;;;;;;;19.72;46.51;98587.78;2069639;28;1616;-63
2024/03/27 01:43:27;;;;;;;;;;;;;;;19.72;46.43;98582.03;2069032;28;1680;-63
2024/03/27 01:44:27;;;;;;;;;;;;;;;19.72;46.48;98590.66;2059176;28;1658;-63
2024/03/27 01:45:29;;;;;;;;;;;;;;;19.71;46.53;98589.22;2053554;28;2061;-63
2024/03/27 01:46:29;;;;;;;;;;;;;;;19.71;46.59;98586.34;2054460;28;1543;-63
2024/03/27 01:47:30;;;;;;;;;;;;;;;19.70;46.45;98584.88;2053876;28;1679;-63
2024/03/27 01:48:30;;;;;;;;;;;;;;;19.71;46.44;98586.34;2061387;28;1732;-63
2024/03/27 01:49:33;;;;;;;;;;;;;;;19.71;46.46;98586.34;2067406;28;1667;-63
2024/03/27 01:50:34;;;;;;;;;;;;;;;19.71;46.50;98580.59;2069187;28;2109;-63
2024/03/27 01:51:34;;;;;;;;;;;;;;;19.71;46.45;98589.22;2053594;28;1690;-63
2024/03/27 01:52:35;;;;;;;;;;;;;;;19.70;46.46;98584.88;2053960;28;1764;-63
2024/03/27 01:53:36;;;;;;;;;;;;;;;19.69;46.48;98583.44;2060930;28;1642;-63
2024/03/27 01:54:36;;;;;;;;;;;;;;;19.70;46.41;98582.00;2053284;28;1994;-63
2024/03/27 01:55:37;;;;;;;;;;;;;;;19.69;46.53;98581.28;2059981;28;1716;-63
2024/03/27 01:56:38;;;;;;;;;;;;;;;19.70;46.40;98582.00;2060184;28;1731;-63
2024/03/27 01:57:38;;;;;;;;;;;;;;;19.69;46.50;98577.69;2062712;28;1578;-63
2024/03/27 01:58:39;;;;;;;;;;;;;;;19.69;46.56;98587.03;2062252;28;1662;-63
2024/03/27 01:59:40;;;;;;;;;;;;;;;19.69;46.60;98583.44;2059313;28;1705;-63
2024/03/27 02:00:41;;;;;;;;;;;;;;;19.68;46.49;98582.69;2067408;28;6075;-63
2024/03/27 02:01:41;;;;;;;;;;;;;;;19.68;46.49;98582.69;2069702;28;1907;-63
2024/03/27 02:02:42;;;;;;;;;;;;;;;19.68;46.38;98574.06;2069998;28;2074;-63
2024/03/27 02:03:42;;;;;;;;;;;;;;;19.66;46.46;98574.78;2062190;28;1891;-63
2024/03/27 02:04:43;;;;;;;;;;;;;;;19.68;46.46;98576.94;2061744;28;2159;-63
2024/03/27 02:05:44;;;;;;;;;;;;;;;19.67;46.45;98581.94;2061329;28;1725;-63
2024/03/27 02:06:45;;;;;;;;;;;;;;;19.69;46.37;98574.81;2062344;28;1594;-63
2024/03/27 02:07:45;;;;;;;;;;;;;;;19.66;46.44;98580.50;2062172;28;1670;-63
2024/03/27 02:08:46;;;;;;;;;;;;;;;19.66;46.62;98580.50;2061765;28;1959;-63
2024/03/27 02:09:47;;;;;;;;;;;;;;;19.67;46.55;98581.22;2069585;28;1644;-63
2024/03/27 02:10:47;;;;;;;;;;;;;;;19.66;46.39;98583.38;2062190;28;1629;-63
2024/03/27 02:11:47;;;;;;;;;;;;;;;19.66;46.49;98574.78;2054141;28;1564;-63
2024/03/27 02:12:48;;;;;;;;;;;;;;;19.66;46.41;98574.78;2069304;28;1732;-64
2024/03/27 02:13:48;;;;;;;;;;;;;;;19.67;46.37;98586.97;2069237;28;1652;-63
2024/03/27 02:14:48;;;;;;;;;;;;;;;19.65;46.35;98579.06;2061871;28;2088;-63
2024/03/27 02:15:58;;;;;;;;;;;;;;;19.66;46.35;98571.19;2061841;28;1678;-63
2024/03/27 02:16:58;;;;;;;;;;;;;;;19.65;46.51;98579.06;2064244;28;1627;-63
2024/03/27 02:17:59;;;;;;;;;;;;;;;19.65;46.37;98579.06;2061644;28;1650;-63
2024/03/27 02:18:59;;;;;;;;;;;;;;;19.65;46.41;98576.19;2060984;28;1579;-63
2024/03/27 02:19:59;;;;;;;;;;;;;;;19.65;46.44;98573.31;2068667;28;1632;-63
2024/03/27 02:21:00;;;;;;;;;;;;;;;19.65;46.53;98570.47;2069494;28;2039;-63
2024/03/27 02:22:01;;;;;;;;;;;;;;;19.64;46.47;98569.00;2062137;28;1638;-63
2024/03/27 02:23:08;;;;;;;;;;;;;;;19.64;46.57;98574.75;2062183;28;1658;-63
2024/03/27 02:24:08;;;;;;;;;;;;;;;19.64;46.34;98571.88;2063412;28;1638;-64
2024/03/27 02:25:20;;;;;;;;;;;;;;;19.64;46.52;98565.41;2061341;28;2185;-63
2024/03/27 02:26:23;;;;;;;;;;;;;;;19.64;46.41;98571.88;2061877;28;1690;-63
2024/03/27 02:27:24;;;;;;;;;;;;;;;19.64;46.42;98579.75;2059351;28;1592;-63
2024/03/27 02:28:24;;;;;;;;;;;;;;;19.64;46.43;98571.88;2068249;28;1624;-63
2024/03/27 02:29:24;;;;;;;;;;;;;;;19.63;46.28;98567.56;2067545;28;1652;-63
2024/03/27 02:30:25;;;;;;;;;;;;;;;19.63;46.38;98576.16;2055833;28;6416;-63
2024/03/27 02:31:25;;;;;;;;;;;;;;;19.63;46.39;98576.16;2059989;28;1741;-63
2024/03/27 02:32:26;;;;;;;;;;;;;;;19.63;46.47;98581.91;2061238;28;1638;-63
2024/03/27 02:33:26;;;;;;;;;;;;;;;19.63;46.57;98572.56;2060717;28;1654;-63
2024/03/27 02:34:26;;;;;;;;;;;;;;;19.63;46.34;98581.91;2054145;28;1919;-63
2024/03/27 02:35:27;;;;;;;;;;;;;;;19.63;46.33;98584.78;2054236;28;2167;-63
2024/03/27 02:36:27;;;;;;;;;;;;;;;19.63;46.43;98573.31;2054691;28;1803;-63
2024/03/27 02:37:27;;;;;;;;;;;;;;;19.62;46.48;98568.97;2060629;28;1654;-63
2024/03/27 02:38:28;;;;;;;;;;;;;;;19.63;46.37;98569.69;2061494;28;1670;-63
2024/03/27 02:39:28;;;;;;;;;;;;;;;19.60;46.42;98568.94;2053286;28;2174;-63
2024/03/27 02:40:29;;;;;;;;;;;;;;;19.62;46.40;98568.25;2054314;28;1683;-63
2024/03/27 02:41:29;;;;;;;;;;;;;;;19.61;46.53;98567.53;2053961;28;1667;-63
2024/03/27 02:42:29;;;;;;;;;;;;;;;19.62;46.47;98574.72;2054693;28;1756;-63
2024/03/27 02:43:30;;;;;;;;;;;;;;;19.61;46.43;98561.06;2054535;28;1707;-63
2024/03/27 02:44:30;;;;;;;;;;;;;;;19.61;46.39;98572.56;2060972;28;1761;-63
2024/03/27 02:45:31;;;;;;;;;;;;;;;19.61;46.47;98561.78;2060626;28;2250;-63
2024/03/27 02:46:31;;;;;;;;;;;;;;;19.62;46.39;98562.50;2054325;28;1676;-63
2024/03/27 02:47:31;;;;;;;;;;;;;;;19.61;46.38;98567.53;2053570;28;1738;-63
2024/03/27 02:48:32;;;;;;;;;;;;;;;19.61;46.45;98570.41;2061508;28;1650;-63
2024/03/27 02:49:32;;;;;;;;;;;;;;;19.61;46.34;98567.53;2060742;28;1643;-63
2024/03/27 02:50:33;;;;;;;;;;;;;;;19.60;46.49;98560.31;2061756;28;1814;-63
2024/03/27 02:51:33;;;;;;;;;;;;;;;19.60;46.35;98554.59;2060909;28;1527;-63
2024/03/27 02:52:33;;;;;;;;;;;;;;;19.59;46.34;98561.75;2053440;28;1655;-63
2024/03/27 02:53:34;;;;;;;;;;;;;;;19.59;46.36;98561.75;2060692;28;1619;-63
2024/03/27 02:54:34;;;;;;;;;;;;;;;19.60;46.40;98554.59;2061061;28;1971;-63
2024/03/27 02:55:34;;;;;;;;;;;;;;;19.59;46.46;98553.16;2045467;28;2088;-63
2024/03/27 02:56:35;;;;;;;;;;;;;;;19.60;46.47;98554.59;2045883;28;1746;-62
2024/03/27 02:57:35;;;;;;;;;;;;;;;19.59;46.40;98547.41;2053061;28;1617;-63
2024/03/27 02:58:36;;;;;;;;;;;;;;;19.59;46.36;98547.41;2054037;28;1600;-63
2024/03/27 02:59:36;;;;;;;;;;;;;;;19.59;46.32;98553.16;2060371;28;2111;-63
2024/03/27 03:00:36;;;;;;;;;;;;;;;19.59;46.44;98547.41;2058998;28;6965;-63
2024/03/27 03:01:37;;;;;;;;;;;;;;;19.59;46.54;98550.28;2053081;28;1608;-63
2024/03/27 03:02:37;;;;;;;;;;;;;;;19.58;46.35;98540.19;2060716;28;1614;-63
2024/03/27 03:03:38;;;;;;;;;;;;;;;19.59;46.47;98535.94;2060479;28;1663;-63
2024/03/27 03:04:38;;;;;;;;;;;;;;;19.59;46.33;98538.06;2061378;28;1639;-63
2024/03/27 03:05:39;;;;;;;;;;;;;;;19.58;46.29;98533.75;2060619;28;2127;-63
2024/03/27 03:06:39;;;;;;;;;;;;;;;19.59;46.43;98538.06;2053472;28;1615;-63
2024/03/27 03:07:39;;;;;;;;;;;;;;;19.59;46.27;98538.06;2053790;28;1918;-63
2024/03/27 03:08:40;;;;;;;;;;;;;;;19.58;46.38;98537.34;2054155;28;1700;-63
2024/03/27 03:09:40;;;;;;;;;;;;;;;19.58;46.30;98537.34;2060679;28;1691;-63
2024/03/27 03:10:41;;;;;;;;;;;;;;;19.58;46.40;98534.47;2054397;28;1600;-63
2024/03/27 03:11:41;;;;;;;;;;;;;;;19.57;46.37;98535.91;2053963;28;1719;-63
2024/03/27 03:12:41;;;;;;;;;;;;;;;19.57;46.35;98527.28;2054642;28;1647;-63
2024/03/27 03:13:42;;;;;;;;;;;;;;;19.57;46.29;98521.53;2053360;28;1616;-63
2024/03/27 03:14:42;;;;;;;;;;;;;;;19.57;46.35;98515.81;2052674;28;1907;-63
2024/03/27 03:15:43;;;;;;;;;;;;;;;19.57;46.28;98520.81;2059976;28;2185;-63
2024/03/27 03:16:43;;;;;;;;;;;;;;;19.57;46.28;98523.69;2062211;28;1642;-63
2024/03/27 03:17:44;;;;;;;;;;;;;;;19.56;46.34;98519.38;2053009;28;1700;-63
2024/03/27 03:18:47;;;;;;;;;;;;;;;19.56;46.37;98520.09;2054856;28;1847;-63
2024/03/27 03:19:48;;;;;;;;;;;;;;;19.57;46.35;98527.28;2053944;28;1635;-63
2024/03/27 03:20:48;;;;;;;;;;;;;;;19.40;46.72;98525.63;2052649;28;1620;-63
2024/03/27 03:21:48;;;;;;;;;;;;;;;19.28;46.96;98520.44;2061838;28;2318;-63
2024/03/27 03:22:52;;;;;;;;;;;;;;;19.27;47.03;98530.50;2061344;28;1691;-63
2024/03/27 03:23:53;;;;;;;;;;;;;;;19.38;46.80;98517.72;2060331;28;1582;-63
2024/03/27 03:24:53;;;;;;;;;;;;;;;19.49;46.54;98520.72;2053980;28;1689;-63
2024/03/27 03:25:53;;;;;;;;;;;;;;;19.52;46.55;98527.94;2052743;28;2178;-63
2024/03/27 03:26:54;;;;;;;;;;;;;;;19.54;46.50;98516.47;2054965;28;1656;-63
2024/03/27 03:27:54;;;;;;;;;;;;;;;19.54;46.47;98516.47;2052472;28;1633;-63
2024/03/27 03:28:55;;;;;;;;;;;;;;;19.54;46.41;98513.59;2053341;28;1642;-67
2024/03/27 03:29:55;;;;;;;;;;;;;;;19.54;46.36;98510.72;2054242;28;2104;-68
2024/03/27 03:31:02;;;;;;;;;;;;;;;19.54;46.30;98517.22;2052651;28;5986;-67
2024/03/27 03:32:03;;;;;;;;;;;;;;;19.55;46.35;98512.19;2054600;28;1613;-63
2024/03/27 03:33:03;;;;;;;;;;;;;;;19.55;46.47;98506.44;2052203;28;1707;-72
2024/03/27 03:34:04;;;;;;;;;;;;;;;19.54;46.42;98505.72;2053421;28;1643;-72
2024/03/27 03:35:04;;;;;;;;;;;;;;;19.54;46.36;98502.88;2053300;28;2546;-72
2024/03/27 03:36:06;;;;;;;;;;;;;;;19.54;46.41;98505.72;2052425;28;1757;-72
2024/03/27 03:37:06;;;;;;;;;;;;;;;19.53;46.31;98498.53;2053564;28;1637;-72
2024/03/27 03:38:06;;;;;;;;;;;;;;;19.53;46.40;98495.66;2052194;28;1692;-72
2024/03/27 03:39:07;;;;;;;;;;;;;;;19.52;46.40;98491.34;2052043;28;1911;-71
2024/03/27 03:40:08;;;;;;;;;;;;;;;19.53;46.32;98492.78;2052660;28;1628;-72
2024/03/27 03:41:10;;;;;;;;;;;;;;;19.53;46.23;98492.78;2060164;28;1687;-72
2024/03/27 03:42:11;;;;;;;;;;;;;;;19.54;46.31;98493.50;2061290;28;1555;-72
2024/03/27 03:43:11;;;;;;;;;;;;;;;19.54;46.27;98488.50;2059660;28;1591;-72
2024/03/27 03:44:11;;;;;;;;;;;;;;;19.45;46.32;98481.94;2061940;28;1654;-72
2024/03/27 03:45:12;;;;;;;;;;;;;;;19.48;46.45;98479.09;2060345;28;2151;-72
2024/03/27 03:46:12;;;;;;;;;;;;;;;19.32;46.72;98476.75;2061303;28;1672;-73
2024/03/27 03:47:12;;;;;;;;;;;;;;;19.44;46.64;98479.75;2061712;28;1659;-72
2024/03/27 03:48:13;;;;;;;;;;;;;;;19.52;46.21;98482.03;2054708;28;1949;-71
2024/03/27 03:49:13;;;;;;;;;;;;;;;19.55;46.30;98480.63;2060331;28;1713;-72
2024/03/27 03:50:14;;;;;;;;;;;;;;;19.56;46.21;98473.44;2061820;28;1643;-72
2024/03/27 03:51:14;;;;;;;;;;;;;;;19.58;46.21;98471.31;2053046;28;1850;-72
2024/03/27 03:52:14;;;;;;;;;;;;;;;19.59;46.24;98477.81;2061596;28;2487;-72
2024/03/27 03:53:15;;;;;;;;;;;;;;;19.60;46.17;98467.75;2051959;28;1815;-72
2024/03/27 03:54:15;;;;;;;;;;;;;;;19.59;46.19;98475.66;2051806;28;1615;-72
2024/03/27 03:55:16;;;;;;;;;;;;;;;19.60;46.21;98474.22;2052396;28;2123;-72
2024/03/27 03:56:16;;;;;;;;;;;;;;;19.61;46.20;98469.94;2053229;28;1692;-72
2024/03/27 03:57:16;;;;;;;;;;;;;;;19.60;46.16;98468.47;2053051;28;1684;-72
2024/03/27 03:58:17;;;;;;;;;;;;;;;19.61;46.13;98469.94;2052959;28;1701;-72
2024/03/27 03:59:17;;;;;;;;;;;;;;;19.60;46.24;98462.72;2053563;28;1692;-72
2024/03/27 04:00:20;;;;;;;;;;;;;;;19.62;46.14;98467.78;2052482;28;6272;-72
2024/03/27 04:01:21;;;;;;;;;;;;;;;19.63;46.30;98460.59;2052631;28;1609;-72
2024/03/27 04:02:21;;;;;;;;;;;;;;;19.63;46.21;98461.34;2053705;28;1639;-71
2024/03/27 04:03:22;;;;;;;;;;;;;;;19.64;46.33;98459.91;2051533;28;1672;-72
2024/03/27 04:04:22;;;;;;;;;;;;;;;19.64;46.43;98457.03;2052511;28;1647;-72
2024/03/27 04:05:22;;;;;;;;;;;;;;;19.65;46.53;98461.38;2052258;28;1652;-72
2024/03/27 04:06:24;;;;;;;;;;;;;;;19.65;46.67;98452.75;2052746;28;1627;-71
2024/03/27 04:07:24;;;;;;;;;;;;;;;19.65;46.31;98447.03;2060216;28;1684;-72
2024/03/27 04:08:25;;;;;;;;;;;;;;;19.66;46.51;98448.44;2059779;28;2613;-72
2024/03/27 04:09:25;;;;;;;;;;;;;;;19.67;46.56;98438.41;2052598;28;2163;-72
2024/03/27 04:10:25;;;;;;;;;;;;;;;19.67;46.50;98443.44;2053310;28;1703;-71
2024/03/27 04:11:26;;;;;;;;;;;;;;;19.44;47.04;98439.59;2053204;28;1691;-72
2024/03/27 04:12:26;;;;;;;;;;;;;;;19.37;47.31;98446.69;2061502;28;1650;-72
2024/03/27 04:13:27;;;;;;;;;;;;;;;19.34;47.44;98440.19;2060929;28;1928;-72
2024/03/27 04:14:27;;;;;;;;;;;;;;;19.33;47.74;98443.75;2053347;28;2011;-72
2024/03/27 04:15:27;;;;;;;;;;;;;;;19.49;47.27;98451.84;2051993;28;2292;-72
2024/03/27 04:16:28;;;;;;;;;;;;;;;19.59;47.10;98444.06;2053594;28;1659;-72
2024/03/27 04:17:28;;;;;;;;;;;;;;;19.64;46.89;98450.56;2052008;28;1891;-72
2024/03/27 04:18:29;;;;;;;;;;;;;;;19.64;46.81;98451.28;2052118;28;1642;-72
2024/03/27 04:19:29;;;;;;;;;;;;;;;19.66;46.97;98448.44;2050258;28;1658;-72
2024/03/27 04:20:30;;;;;;;;;;;;;;;19.69;46.97;98440.59;2060362;28;2650;-72
2024/03/27 04:21:30;;;;;;;;;;;;;;;19.69;46.92;98440.59;2059844;28;1632;-72
2024/03/27 04:22:31;;;;;;;;;;;;;;;19.69;46.83;98457.13;2061440;28;1815;-72
2024/03/27 04:23:32;;;;;;;;;;;;;;;19.70;47.03;98444.19;2053148;28;1692;-72
2024/03/27 04:24:32;;;;;;;;;;;;;;;19.69;47.00;98457.13;2059578;28;1527;-71
2024/03/27 04:25:32;;;;;;;;;;;;;;;19.69;47.07;98462.84;2058801;28;1928;-72
2024/03/27 04:26:33;;;;;;;;;;;;;;;19.69;47.05;98474.34;2055022;28;1728;-72
2024/03/27 04:27:34;;;;;;;;;;;;;;;19.66;47.08;98477.16;2053556;28;1534;-72
2024/03/27 04:28:34;;;;;;;;;;;;;;;19.69;47.04;98474.34;2053756;28;1787;-72
2024/03/27 04:29:35;;;;;;;;;;;;;;;19.67;47.00;98475.00;2061171;28;1633;-72
2024/03/27 04:30:36;;;;;;;;;;;;;;;19.69;46.97;98468.59;2058282;28;6183;-72
2024/03/27 04:31:37;;;;;;;;;;;;;;;19.69;47.13;98465.72;2051803;28;2643;-72
2024/03/27 04:32:37;;;;;;;;;;;;;;;19.69;46.93;98457.84;2059594;28;1685;-72
2024/03/27 04:33:37;;;;;;;;;;;;;;;19.69;47.07;98457.13;2058644;28;1610;-72
2024/03/27 04:34:38;;;;;;;;;;;;;;;19.70;46.94;98467.16;2052282;28;2410;-72
2024/03/27 04:35:38;;;;;;;;;;;;;;;19.70;47.00;98452.81;2053485;28;2115;-72
2024/03/27 04:36:39;;;;;;;;;;;;;;;19.70;47.02;98461.41;2052533;28;1618;-72
2024/03/27 04:37:40;;;;;;;;;;;;;;;19.72;46.94;98459.28;2056058;28;1634;-72
2024/03/27 04:38:41;;;;;;;;;;;;;;;19.72;47.11;98455.69;2051108;28;1697;-72
2024/03/27 04:39:42;;;;;;;;;;;;;;;19.72;46.87;98461.44;2052696;28;2061;-71
2024/03/27 04:40:44;;;;;;;;;;;;;;;19.73;47.02;98451.44;2053269;28;1725;-72
2024/03/27 04:41:44;;;;;;;;;;;;;;;19.74;47.12;98441.38;2060802;28;1537;-72
2024/03/27 04:42:44;;;;;;;;;;;;;;;19.74;47.13;98452.84;2061008;28;1569;-72
2024/03/27 04:43:45;;;;;;;;;;;;;;;19.75;47.22;98451.44;2052429;28;2130;-72
2024/03/27 04:44:45;;;;;;;;;;;;;;;19.74;47.34;98452.84;2060436;28;2174;-72
2024/03/27 04:45:46;;;;;;;;;;;;;;;19.75;47.35;98454.31;2058615;28;1973;-72
2024/03/27 04:46:46;;;;;;;;;;;;;;;19.75;47.25;98454.31;2052972;28;1547;-73
2024/03/27 04:47:47;;;;;;;;;;;;;;;19.75;47.13;98445.69;2052502;28;1694;-72
2024/03/27 04:48:47;;;;;;;;;;;;;;;19.75;47.23;98442.84;2049778;28;1552;-72
2024/03/27 04:49:47;;;;;;;;;;;;;;;19.74;47.02;98447.13;2052866;28;2080;-72
2024/03/27 04:50:48;;;;;;;;;;;;;;;19.75;47.04;98437.09;2051775;28;1587;-72
2024/03/27 04:51:48;;;;;;;;;;;;;;;19.75;47.21;98442.84;2050980;28;1590;-72
2024/03/27 04:52:49;;;;;;;;;;;;;;;19.75;47.19;98431.34;2052330;28;1575;-72
2024/03/27 04:53:49;;;;;;;;;;;;;;;19.75;47.35;98439.97;2059546;28;2166;-73
2024/03/27 04:54:49;;;;;;;;;;;;;;;19.75;47.25;98442.84;2060855;28;2202;-72
2024/03/27 04:55:56;;;;;;;;;;;;;;;19.74;47.23;98442.09;2053932;28;2067;-72
2024/03/27 04:56:56;;;;;;;;;;;;;;;19.74;47.30;98447.13;2053916;28;1665;-72
2024/03/27 04:57:57;;;;;;;;;;;;;;;19.75;47.27;98442.84;2053612;28;1547;-72
2024/03/27 04:58:58;;;;;;;;;;;;;;;19.76;47.32;98441.41;2053193;28;1587;-71
2024/03/27 04:59:58;;;;;;;;;;;;;;;19.76;47.28;98432.78;2051529;28;1575;-73
2024/03/27 05:00:58;;;;;;;;;;;;;;;19.76;47.28;98442.13;2047675;28;7264;-72
2024/03/27 05:01:59;;;;;;;;;;;;;;;19.76;47.37;98432.78;2052671;28;1676;-72
2024/03/27 05:02:59;;;;;;;;;;;;;;;19.78;47.27;98441.41;2052378;28;1835;-72
2024/03/27 05:04:00;;;;;;;;;;;;;;;19.77;47.29;98428.47;2053441;28;1606;-72
2024/03/27 05:05:00;;;;;;;;;;;;;;;19.78;47.24;98433.53;2051889;28;1651;-72
2024/03/27 05:06:00;;;;;;;;;;;;;;;19.78;47.25;98427.06;2052044;28;1624;-72
2024/03/27 05:07:01;;;;;;;;;;;;;;;19.76;47.43;98422.00;2050076;28;2121;-72
2024/03/27 05:08:02;;;;;;;;;;;;;;;19.79;47.12;98425.63;2052101;28;1770;-72
2024/03/27 05:09:03;;;;;;;;;;;;;;;19.79;47.17;98414.88;2052909;28;1710;-72
2024/03/27 05:10:03;;;;;;;;;;;;;;;19.78;47.28;98407.69;2051389;28;1720;-72
2024/03/27 05:11:06;;;;;;;;;;;;;;;19.79;47.20;98408.41;2051882;28;2008;-72
2024/03/27 05:12:06;;;;;;;;;;;;;;;19.79;47.33;98396.91;2055006;28;1664;-74
2024/03/27 05:13:06;;;;;;;;;;;;;;;19.79;47.28;98396.91;2056601;28;1609;-72
2024/03/27 05:14:07;;;;;;;;;;;;;;;19.79;47.38;98397.66;2061475;28;2214;-71
2024/03/27 05:15:08;;;;;;;;;;;;;;;19.79;47.31;98391.16;2061713;28;1977;-73
2024/03/27 05:16:08;;;;;;;;;;;;;;;19.80;47.50;98395.50;2061862;28;1811;-73
2024/03/27 05:17:09;;;;;;;;;;;;;;;19.79;47.45;98391.91;2061470;28;1653;-74
2024/03/27 05:18:09;;;;;;;;;;;;;;;19.80;47.38;98386.88;2054202;28;1601;-72
2024/03/27 05:19:09;;;;;;;;;;;;;;;19.78;47.32;98390.47;2053426;28;1740;-72
2024/03/27 05:20:10;;;;;;;;;;;;;;;19.79;47.29;98386.16;2060394;28;1670;-72